Terminal Aerodrome Forecast
Issued by NWS

Home | Current Version | Previous Version | Graphics & Text | Print | Product List | Glossary On
Versions: 1 2 3 4 5 6 7 8 9 10 11 12 13 14 15 16 17 18 19 20 21 22 23 24 25 26 27 28 29 30 31 32 33 34
000
FTUS43 KLOT 251400 AAB
TAFDPA
TAF AMD
KDPA 251401Z 2514/2612 26008KT P6SM FEW250
      TEMPO 2514/2515 4SM BR
     FM252000 30015G23KT P6SM FEW100
     FM252300 29010KT P6SM FEW080
     FM260700 32008KT P6SM SKC=

USA.gov is the U.S. government's official web portal to all federal, state and local government web resources and services.